Terminal Aerodrome Forecast
Issued by NWS

Home | Current Version | Previous Version | Text Only | Print | Product List | Glossary On
Versions: 1 2 3 4 5 6 7 8 9 10 11 12 13 14 15 16 17 18 19 20 21 22 23 24 25 26 27 28 29 30 31 32 33
000
FTUS45 KFGZ 221142
TAFGCN
TAF
KGCN 221142Z 2212/2312 VRB03KT P6SM FEW005 SCT110 BKN200
     FM221400 20006KT P6SM SCT009 BKN030 OVC060
     FM221800 21012G18KT 6SM -SHSN BKN015 OVC030
      TEMPO 2220/2224 1SM -SN OVC012
     FM230000 21016G24KT 1SM -SN OVC011=

USA.gov is the U.S. government's official web portal to all federal, state and local government web resources and services.